Time;durP1;ratioP1;P1;durP2;ratioP2;P2;SDS_P1;SDS_P2;PMS_P1;PMS_P2;Temp;Humidity;BMP_temperature;BMP_pressure;BME280_temperature;BME280_humidity;BME280_pressure;Samples;Min_cycle;Max_cycle;Signal;HPM_P1;HPM_P2
2021/03/20 00:00:54;;;;;;;0.25;0.25;;;;;;;6.15;64.54;101984.31;6288246;22;20091;-75
2021/03/20 00:03:20;;;;;;;0.20;0.20;;;;;;;6.04;64.78;101970.25;6314514;22;20003;-77
2021/03/20 00:05:46;;;;;;;0.10;0.10;;;;;;;6.15;64.38;101984.31;6313324;22;20030;-79
2021/03/20 00:08:17;;;;;;;0.20;0.10;;;;;;;6.14;64.43;101996.25;6312046;22;20003;-77
2021/03/20 00:10:42;;;;;;;0.20;0.20;;;;;;;6.10;64.34;101991.22;6306473;22;20014;-77
2021/03/20 00:13:08;;;;;;;0.20;0.20;;;;;;;6.06;64.30;101994.50;6248776;22;20023;-76
2021/03/20 00:15:33;;;;;;;0.20;0.20;;;;;;;6.04;64.13;101988.44;6278227;22;20007;-76
2021/03/20 00:17:59;;;;;;;0.10;0.10;;;;;;;5.99;64.44;101994.47;6299820;22;20010;-77
2021/03/20 00:20:29;;;;;;;0.20;0.20;;;;;;;5.97;64.43;102001.94;6306174;22;20369;-76
2021/03/20 00:22:56;;;;;;;0.10;0.10;;;;;;;5.94;64.35;101999.59;6280441;22;20003;-79
2021/03/20 00:25:23;;;;;;;0.10;0.00;;;;;;;5.89;64.80;101991.22;6287151;22;20007;-77
2021/03/20 00:27:57;;;;;;;0.10;0.10;;;;;;;5.83;64.33;101981.16;6285895;22;20019;-79
2021/03/20 00:30:23;;;;;;;0.10;0.10;;;;;;;5.81;64.64;101983.19;6312295;22;20027;-76
2021/03/20 00:32:51;;;;;;;0.20;0.20;;;;;;;5.80;63.90;101986.94;6311259;22;20449;-77
2021/03/20 00:35:18;;;;;;;0.10;0.10;;;;;;;5.82;64.50;101993.84;6282856;22;19999;-78
2021/03/20 00:37:46;;;;;;;0.10;0.10;;;;;;;5.79;64.17;101999.69;6304554;22;20516;-78
2021/03/20 00:40:15;;;;;;;0.10;0.10;;;;;;;5.71;64.11;101989.81;6281846;22;20034;-76
2021/03/20 00:42:43;;;;;;;0.10;0.10;;;;;;;5.73;64.68;101997.75;6305647;22;20011;-77
2021/03/20 00:45:11;;;;;;;0.10;0.10;;;;;;;5.73;64.64;102004.00;6278279;22;20072;-76
2021/03/20 00:47:36;;;;;;;0.22;0.22;;;;;;;5.75;64.63;102006.53;6281347;22;20003;-77
2021/03/20 00:50:04;;;;;;;0.30;0.28;;;;;;;5.59;65.00;101992.22;6305512;22;20007;-77
2021/03/20 00:52:34;;;;;;;0.47;0.47;;;;;;;5.53;64.88;101984.00;6277275;22;20015;-76
2021/03/20 00:55:01;;;;;;;0.20;0.20;;;;;;;5.64;64.70;102004.38;6254232;22;20015;-77
2021/03/20 00:57:27;;;;;;;0.10;0.10;;;;;;;5.64;64.75;101993.50;6280203;22;20003;-76
2021/03/20 00:59:52;;;;;;;0.13;0.13;;;;;;;5.82;64.97;102018.28;6276073;22;20079;-77
2021/03/20 01:02:17;;;;;;;0.10;0.10;;;;;;;5.98;64.61;102016.38;6279268;22;20011;-78
2021/03/20 01:04:50;;;;;;;0.20;0.13;;;;;;;6.02;64.45;102009.53;6309301;22;20282;-79
2021/03/20 01:07:16;;;;;;;0.20;0.20;;;;;;;6.25;64.47;102020.13;6275012;22;20321;-77
2021/03/20 01:09:51;;;;;;;;;;;;;;;;;;;;;
2021/03/20 01:12:26;;;;;;;0.10;0.08;;;;;;;6.41;64.34;102006.25;6301706;22;20082;-75
2021/03/20 01:14:54;;;;;;;0.05;0.05;;;;;;;6.54;64.33;102010.06;6256093;22;20010;-75
2021/03/20 01:17:23;;;;;;;0.10;0.10;;;;;;;6.57;64.03;101998.78;6302419;22;19999;-74
2021/03/20 01:19:48;;;;;;;0.00;0.00;;;;;;;6.74;64.02;102021.88;6272571;22;20003;-74
2021/03/20 01:22:18;;;;;;;0.03;0.03;;;;;;;6.78;63.91;102012.28;6278721;22;20003;-75
2021/03/20 01:24:43;;;;;;;0.15;0.15;;;;;;;6.85;63.21;102000.59;6276958;22;20021;-74
2021/03/20 01:27:11;;;;;;;0.20;0.20;;;;;;;7.04;63.46;102032.50;6277032;22;20007;-76
2021/03/20 01:29:36;;;;;;;0.10;0.10;;;;;;;7.03;63.12;102014.50;6307722;22;20010;-77
2021/03/20 01:32:02;;;;;;;0.20;0.20;;;;;;;7.07;62.90;102015.78;6288383;22;20011;-77
2021/03/20 01:34:28;;;;;;;0.10;0.10;;;;;;;7.12;63.60;102018.69;6312721;22;20000;-75
2021/03/20 01:36:56;;;;;;;0.20;0.20;;;;;;;7.16;63.36;102014.53;6286101;22;20030;-76
2021/03/20 01:39:22;;;;;;;0.20;0.20;;;;;;;7.25;63.23;102019.81;6262991;22;20011;-77
2021/03/20 01:41:47;;;;;;;0.20;0.20;;;;;;;7.32;62.48;102026.09;6318172;22;20112;-75
2021/03/20 01:44:23;;;;;;;0.20;0.20;;;;;;;7.31;62.87;102021.69;6265108;22;20045;-78
2021/03/20 01:46:52;;;;;;;0.25;0.25;;;;;;;7.39;63.21;102029.69;6319728;22;20094;-79
2021/03/20 01:49:20;;;;;;;0.20;0.20;;;;;;;7.31;62.28;102021.69;6285530;22;20026;-76
2021/03/20 01:51:55;;;;;;;0.35;0.30;;;;;;;7.32;62.84;102017.94;6316092;22;20039;-77
2021/03/20 01:54:22;;;;;;;0.30;0.30;;;;;;;7.32;62.90;102001.63;6312251;22;20013;-77
2021/03/20 01:56:50;;;;;;;0.30;0.30;;;;;;;7.31;62.90;102016.25;6264005;22;20011;-80
2021/03/20 01:59:17;;;;;;;0.35;0.35;;;;;;;7.35;62.67;102006.63;6261246;22;20034;-78
2021/03/20 02:01:42;;;;;;;0.20;0.20;;;;;;;7.42;62.16;102018.38;6291257;22;20029;-79
2021/03/20 02:04:08;;;;;;;0.20;0.20;;;;;;;7.45;62.15;102014.41;6262925;22;20019;-77
2021/03/20 02:06:35;;;;;;;0.25;0.20;;;;;;;7.41;62.26;102011.25;6286430;22;20011;-76
2021/03/20 02:09:03;;;;;;;0.22;0.22;;;;;;;7.36;62.58;102007.47;6312772;22;19999;-78
2021/03/20 02:11:42;;;;;;;0.43;0.43;;;;;;;7.37;62.39;102015.44;6284993;22;20030;-81
2021/03/20 02:14:45;;;;;;;0.50;0.50;;;;;;;7.37;62.64;102015.44;6285176;22;20003;-78
2021/03/20 02:17:32;;;;;;;0.73;0.73;;;;;;;7.28;62.71;102017.50;6284419;22;20086;-80
2021/03/20 02:20:16;;;;;;;0.40;0.40;;;;;;;7.22;62.38;102012.06;6313678;22;20041;-79
2021/03/20 02:23:11;;;;;;;0.45;0.45;;;;;;;7.15;62.09;102015.59;6315095;22;20000;-78
2021/03/20 02:26:12;;;;;;;0.47;0.47;;;;;;;7.05;62.35;102012.41;6317906;22;19999;-78
2021/03/20 02:29:07;;;;;;;0.50;0.50;;;;;;;6.97;62.93;102018.03;6317818;22;20009;-82
2021/03/20 02:32:17;;;;;;;1.45;0.32;;;;;;;6.92;62.78;102012.34;6286777;22;20005;-77
2021/03/20 02:35:01;;;;;;;0.43;0.43;;;;;;;6.90;62.94;102014.44;6271807;22;20018;-81
2021/03/20 02:37:35;;;;;;;0.20;0.20;;;;;;;6.87;62.86;101998.53;6313415;22;20441;-79
2021/03/20 02:40:20;;;;;;;0.30;0.30;;;;;;;6.90;63.47;102003.56;6285464;22;20010;-79
2021/03/20 02:42:50;;;;;;;0.57;0.50;;;;;;;6.91;62.66;102007.97;6319635;22;20006;-79
2021/03/20 02:45:42;;;;;;;0.20;0.20;;;;;;;6.93;62.78;102012.16;6292099;22;20006;-80
2021/03/20 02:48:20;;;;;;;0.40;0.40;;;;;;;6.93;62.87;102030.34;6319041;22;20359;-79
2021/03/20 02:51:08;;;;;;;0.40;0.40;;;;;;;6.92;62.94;102021.38;6286333;22;20409;-77
2021/03/20 02:54:00;;;;;;;0.63;0.63;;;;;;;6.95;62.92;102011.94;6282789;22;20061;-77
2021/03/20 02:56:34;;;;;;;0.30;0.30;;;;;;;6.88;62.87;102006.50;6305465;22;20334;-76
2021/03/20 02:59:06;;;;;;;0.30;0.30;;;;;;;6.88;63.26;102011.06;6307264;22;20007;-78
2021/03/20 03:01:33;;;;;;;0.20;0.20;;;;;;;6.88;63.10;102011.06;6304047;22;20056;-78
2021/03/20 03:04:00;;;;;;;0.35;0.35;;;;;;;6.90;63.02;102000.84;6307437;22;20094;-77
2021/03/20 03:06:36;;;;;;;0.40;0.40;;;;;;;6.88;63.31;101998.34;6302661;22;19999;-76
2021/03/20 03:09:22;;;;;;;0.20;0.20;;;;;;;6.82;63.09;101997.25;6306915;22;20003;-77
2021/03/20 03:11:56;;;;;;;0.50;0.50;;;;;;;6.84;63.45;102005.22;6305764;22;20010;-76
2021/03/20 03:14:37;;;;;;;0.60;0.60;;;;;;;6.85;63.36;102000.59;6304313;22;20311;-78
2021/03/20 03:17:04;;;;;;;0.22;0.22;;;;;;;6.83;63.60;102003.53;6303762;22;20026;-77
2021/03/20 03:19:40;;;;;;;0.30;0.30;;;;;;;6.86;63.40;102002.28;6275632;22;20334;-77
2021/03/20 03:22:15;;;;;;;0.30;0.30;;;;;;;6.87;63.25;102002.09;6306225;22;19999;-76
2021/03/20 03:24:43;;;;;;;0.28;0.28;;;;;;;6.87;63.87;102003.97;6306076;22;20311;-77
2021/03/20 03:27:18;;;;;;;0.10;0.10;;;;;;;6.90;63.20;101998.94;6277635;22;20007;-78
2021/03/20 03:29:44;;;;;;;0.20;0.20;;;;;;;6.97;63.69;101990.84;6307365;22;20454;-77
2021/03/20 03:32:27;;;;;;;0.30;0.30;;;;;;;7.04;63.48;102002.56;6245974;22;20022;-77
2021/03/20 03:35:07;;;;;;;0.40;0.30;;;;;;;7.07;63.30;102001.34;6307754;22;20072;-77
2021/03/20 03:37:57;;;;;;;0.20;0.20;;;;;;;7.09;63.13;102002.78;6278965;22;20010;-78
2021/03/20 03:40:47;;;;;;;0.20;0.20;;;;;;;7.11;63.40;102005.31;6276981;22;19999;-79
2021/03/20 03:43:13;;;;;;;0.30;0.30;;;;;;;7.08;62.82;102006.56;6303930;22;20010;-77
2021/03/20 03:45:45;;;;;;;0.30;0.20;;;;;;;7.11;63.45;102006.16;6270843;22;20567;-78
2021/03/20 03:48:12;;;;;;;0.13;0.13;;;;;;;7.16;62.76;102008.25;6273753;22;20056;-76
2021/03/20 03:50:39;;;;;;;0.30;0.10;;;;;;;7.20;63.35;102003.25;6279504;22;20014;-78
2021/03/20 03:53:06;;;;;;;0.25;0.25;;;;;;;7.20;63.12;102003.25;6274726;22;20076;-78
2021/03/20 03:55:33;;;;;;;1.40;0.50;;;;;;;7.20;62.60;101997.78;6281234;22;19999;-78
2021/03/20 03:58:36;;;;;;;0.50;0.50;;;;;;;7.24;63.35;102004.50;6305966;22;20053;-78
2021/03/20 04:01:13;;;;;;;0.10;0.10;;;;;;;7.21;62.78;102011.19;6306820;22;20078;-79
2021/03/20 04:03:58;;;;;;;0.10;0.10;;;;;;;7.25;62.72;102003.47;6304192;22;20039;-78
2021/03/20 04:06:33;;;;;;;0.20;0.20;;;;;;;7.26;62.78;101997.81;6279962;22;20003;-77
2021/03/20 04:09:32;;;;;;;0.17;0.17;;;;;;;7.28;62.54;102005.78;6303329;22;19999;-78
2021/03/20 04:11:57;;;;;;;0.20;0.20;;;;;;;7.26;62.81;102002.44;6279811;22;20053;-77
2021/03/20 04:14:41;;;;;;;0.30;0.30;;;;;;;7.28;62.52;102000.34;6276900;22;20007;-78
2021/03/20 04:17:17;;;;;;;0.20;0.20;;;;;;;7.30;62.98;102000.97;6303935;22;20056;-77
2021/03/20 04:20:07;;;;;;;0.30;0.30;;;;;;;7.35;62.85;102006.63;6301201;22;20022;-77
2021/03/20 04:22:44;;;;;;;0.10;0.10;;;;;;;7.31;62.75;102005.38;6279481;22;20311;-78
2021/03/20 04:25:23;;;;;;;0.30;0.30;;;;;;;7.34;62.39;102000.38;6302859;22;20486;-78
2021/03/20 04:27:59;;;;;;;0.20;0.20;;;;;;;7.34;63.20;102000.38;6306264;22;20002;-78
2021/03/20 04:30:29;;;;;;;0.10;0.10;;;;;;;7.34;62.35;101999.50;6305291;22;20078;-80
2021/03/20 04:33:17;;;;;;;0.22;0.22;;;;;;;7.38;62.95;102003.50;6304882;22;20007;-77
2021/03/20 04:35:52;;;;;;;0.20;0.10;;;;;;;7.38;62.84;101994.50;6305233;22;20003;-78
2021/03/20 04:38:24;;;;;;;0.17;0.17;;;;;;;7.33;63.00;101992.41;6308343;22;20397;-77
2021/03/20 04:41:06;;;;;;;0.10;0.10;;;;;;;7.36;63.02;101991.13;6279146;22;20003;-77
2021/03/20 04:43:34;;;;;;;0.10;0.10;;;;;;;7.38;62.18;102000.78;6277107;22;20014;-79
2021/03/20 04:46:18;;;;;;;0.10;0.10;;;;;;;7.36;62.59;102004.75;6302514;22;20003;-78
2021/03/20 04:48:51;;;;;;;0.20;0.20;;;;;;;7.34;62.60;102000.38;6308565;22;19995;-77
2021/03/20 04:51:25;;;;;;;0.20;0.20;;;;;;;7.37;62.50;101999.09;6275343;22;19999;-77
2021/03/20 04:53:53;;;;;;;0.30;0.22;;;;;;;7.31;62.01;102000.75;6306153;22;20011;-78
2021/03/20 04:56:21;;;;;;;0.40;0.40;;;;;;;7.31;62.81;101999.94;6245859;22;20611;-78
2021/03/20 04:58:51;;;;;;;0.28;0.20;;;;;;;7.32;63.14;102007.06;6303066;22;19995;-77
2021/03/20 05:01:35;;;;;;;0.20;0.20;;;;;;;7.33;62.31;102003.31;6266352;22;20003;-76
2021/03/20 05:04:06;;;;;;;0.30;0.30;;;;;;;7.29;62.87;102000.13;6243953;22;20024;-76
2021/03/20 05:06:34;;;;;;;0.52;0.52;;;;;;;7.22;63.03;102001.16;6241318;22;20439;-75
2021/03/20 05:09:05;;;;;;;0.40;0.40;;;;;;;7.19;63.16;102001.59;6244568;23;20000;-75
2021/03/20 05:11:43;;;;;;;0.40;0.40;;;;;;;7.15;63.03;102007.44;6243950;23;20004;-77
2021/03/20 05:14:15;;;;;;;0.40;0.40;;;;;;;7.19;62.82;102004.31;6239239;22;20027;-75
2021/03/20 05:16:58;;;;;;;0.40;0.40;;;;;;;7.16;62.97;102000.94;6246808;23;20016;-76
2021/03/20 05:19:26;;;;;;;0.60;0.60;;;;;;;7.11;63.79;101995.28;6244310;23;20007;-77
2021/03/20 05:21:54;;;;;;;1.15;1.15;;;;;;;7.11;63.06;102000.72;6234737;22;20411;-76
2021/03/20 05:24:30;;;;;;;0.73;0.73;;;;;;;7.06;63.09;102000.47;6244700;22;20004;-77
2021/03/20 05:26:57;;;;;;;0.75;0.52;;;;;;;7.06;63.38;102008.63;6243513;22;20004;-76
2021/03/20 05:29:24;;;;;;;0.30;0.30;;;;;;;7.05;63.47;102009.69;6242493;23;20015;-76
2021/03/20 05:31:50;;;;;;;0.40;0.20;;;;;;;7.07;64.01;102010.31;6242288;23;20450;-76
2021/03/20 05:34:21;;;;;;;0.30;0.30;;;;;;;7.10;63.81;102009.91;6236220;22;20004;-77
2021/03/20 05:36:47;;;;;;;0.30;0.30;;;;;;;7.09;63.60;102008.22;6246687;22;20426;-76
2021/03/20 05:39:13;;;;;;;0.55;0.40;;;;;;;7.11;64.11;102006.16;6241982;23;20015;-77
2021/03/20 05:42:05;;;;;;;0.88;0.88;;;;;;;7.10;63.55;102009.91;6245156;23;20004;-75
2021/03/20 05:44:45;;;;;;;1.17;1.08;;;;;;;7.07;63.80;102010.31;6245222;23;20000;-76
2021/03/20 05:47:23;;;;;;;0.65;0.60;;;;;;;7.05;64.58;102014.28;6243934;23;20143;-77
2021/03/20 05:49:57;;;;;;;0.63;0.63;;;;;;;7.08;64.15;102016.59;6241512;23;20403;-76
2021/03/20 05:52:44;;;;;;;0.40;0.30;;;;;;;7.11;64.20;102011.59;6243005;23;20011;-77
2021/03/20 05:55:25;;;;;;;0.10;0.10;;;;;;;7.17;64.25;102007.22;6246363;23;20034;-77
2021/03/20 05:58:09;;;;;;;0.45;0.20;;;;;;;7.23;63.75;102013.72;6244330;22;20006;-77
2021/03/20 06:01:02;;;;;;;0.60;0.25;;;;;;;7.23;63.56;102002.81;6243319;23;19996;-77
2021/03/20 06:03:43;;;;;;;0.60;0.50;;;;;;;7.30;64.38;102009.13;6286642;22;20433;-77
2021/03/20 06:06:23;;;;;;;3.70;0.70;;;;;;;7.30;63.54;102014.56;6279635;22;20007;-77
2021/03/20 06:09:01;;;;;;;0.60;0.60;;;;;;;7.31;63.89;102018.97;6278043;22;20033;-77
2021/03/20 06:12:00;;;;;;;0.30;0.30;;;;;;;7.34;63.39;102013.97;6271528;22;19991;-77
2021/03/20 06:14:59;;;;;;;0.30;0.30;;;;;;;7.36;64.16;102012.91;6278312;22;20035;-76
2021/03/20 06:17:37;;;;;;;0.45;0.45;;;;;;;7.40;63.77;102008.75;6305548;22;19999;-77
2021/03/20 06:20:15;;;;;;;0.98;0.98;;;;;;;7.38;63.93;102006.22;6306431;22;20471;-79
2021/03/20 06:23:11;;;;;;;0.80;0.80;;;;;;;7.41;63.18;102003.09;6304994;22;20003;-77
2021/03/20 06:25:52;;;;;;;0.50;0.50;;;;;;;7.44;64.01;102010.84;6309182;22;19999;-77
2021/03/20 06:28:32;;;;;;;0.40;0.40;;;;;;;7.42;64.09;102012.94;6284513;22;20329;-76
2021/03/20 06:31:06;;;;;;;0.70;0.70;;;;;;;7.45;63.70;102017.97;6303587;22;20326;-76
2021/03/20 06:33:54;;;;;;;0.85;0.85;;;;;;;7.46;64.25;102025.09;6311791;22;20007;-77
2021/03/20 06:36:36;;;;;;;1.40;1.30;;;;;;;7.50;63.32;102031.81;6303464;22;20007;-77
2021/03/20 06:39:35;;;;;;;0.85;0.85;;;;;;;7.51;63.43;102028.03;6305141;22;20003;-76
2021/03/20 06:42:07;;;;;;;1.98;1.33;;;;;;;7.50;63.58;102029.09;6274093;22;19999;-76
2021/03/20 06:44:44;;;;;;;0.68;0.68;;;;;;;7.54;63.45;102025.94;6280236;22;20025;-77
2021/03/20 06:47:18;;;;;;;1.13;1.13;;;;;;;7.54;63.98;102025.94;6305741;22;20027;-76
2021/03/20 06:49:46;;;;;;;1.25;1.17;;;;;;;7.60;64.01;102030.56;6279945;22;20003;-78
2021/03/20 06:52:19;;;;;;;1.30;1.20;;;;;;;7.61;63.56;102027.63;6272892;22;20007;-78
2021/03/20 06:54:52;;;;;;;0.98;0.98;;;;;;;7.62;63.74;102032.03;6309790;22;20457;-78
2021/03/20 06:57:18;;;;;;;1.38;1.30;;;;;;;7.67;63.48;102031.41;6306286;22;20008;-78
2021/03/20 06:59:43;;;;;;;1.40;1.30;;;;;;;7.67;63.42;102036.84;6272529;22;20513;-79
2021/03/20 07:02:38;;;;;;;1.20;1.10;;;;;;;7.71;63.55;102026.38;6278312;22;20022;-77
2021/03/20 07:05:11;;;;;;;0.98;0.98;;;;;;;7.72;64.37;102030.78;6303960;22;20014;-77
2021/03/20 07:08:02;;;;;;;1.35;1.30;;;;;;;7.81;63.95;102026.81;6307626;22;20010;-77
2021/03/20 07:10:41;;;;;;;2.05;1.95;;;;;;;7.80;63.91;102028.69;6307736;22;20006;-78
2021/03/20 07:13:24;;;;;;;1.80;1.70;;;;;;;7.78;64.16;102033.53;6279087;22;20019;-77
2021/03/20 07:16:14;;;;;;;2.10;2.00;;;;;;;7.83;64.52;102041.06;6309259;22;20009;-77
2021/03/20 07:18:42;;;;;;;1.00;1.00;;;;;;;7.84;64.01;102043.59;6305974;22;19999;-78
2021/03/20 07:21:29;;;;;;;1.40;1.30;;;;;;;7.86;63.61;102033.31;6308345;22;20444;-77
2021/03/20 07:24:08;;;;;;;1.75;1.65;;;;;;;7.85;63.71;102037.06;6281255;22;20007;-78
2021/03/20 07:26:56;;;;;;;1.60;1.50;;;;;;;7.92;63.63;102044.44;6310636;22;20048;-78
2021/03/20 07:29:44;;;;;;;2.75;2.10;;;;;;;7.84;64.05;102020.94;6310875;22;20044;-79
2021/03/20 07:32:14;;;;;;;2.13;2.00;;;;;;;7.82;64.49;102023.88;6284564;22;20329;-77
2021/03/20 07:34:39;;;;;;;2.15;2.05;;;;;;;7.93;63.78;102037.91;6305719;22;19999;-79
2021/03/20 07:37:21;;;;;;;1.75;1.65;;;;;;;8.01;64.59;102037.72;6308353;22;20093;-77
2021/03/20 07:39:48;;;;;;;2.40;2.30;;;;;;;8.08;63.79;102035.84;6307653;22;19999;-76
2021/03/20 07:42:36;;;;;;;2.75;2.58;;;;;;;8.14;63.85;102045.88;6279206;22;20033;-75
2021/03/20 07:45:16;;;;;;;2.53;2.33;;;;;;;8.10;64.26;102039.19;6304940;22;20078;-76
2021/03/20 07:48:00;;;;;;;1.80;1.70;;;;;;;8.11;64.40;102040.84;6310613;22;20011;-76
2021/03/20 07:50:33;;;;;;;2.10;2.00;;;;;;;8.13;64.40;102046.09;6316547;22;19999;-77
2021/03/20 07:53:01;;;;;;;2.22;2.03;;;;;;;8.26;64.67;102053.44;6286912;22;20007;-77
2021/03/20 07:55:29;;;;;;;2.15;2.05;;;;;;;8.26;64.16;102050.72;6282471;22;20006;-77
2021/03/20 07:58:01;;;;;;;1.60;1.50;;;;;;;8.36;64.76;102056.56;6307149;22;20078;-76
2021/03/20 08:00:36;;;;;;;2.17;2.08;;;;;;;8.45;64.32;102051.78;6279748;22;20006;-77
2021/03/20 08:03:17;;;;;;;2.23;2.13;;;;;;;8.52;63.58;102060.78;6309085;22;20019;-76
2021/03/20 08:05:44;;;;;;;2.35;2.25;;;;;;;8.49;62.87;102056.59;6303788;22;20003;-75
2021/03/20 08:08:21;;;;;;;2.35;2.25;;;;;;;8.52;63.06;102064.34;6309964;22;20003;-78
2021/03/20 08:11:24;;;;;;;2.30;2.10;;;;;;;8.60;63.74;102056.97;6286679;22;20003;-76
2021/03/20 08:13:56;;;;;;;1.70;1.60;;;;;;;8.66;63.99;102056.97;6292592;22;20034;-78
2021/03/20 08:16:21;;;;;;;1.60;1.60;;;;;;;8.73;62.73;102051.50;6311511;22;20003;-75
2021/03/20 08:18:54;;;;;;;2.00;1.90;;;;;;;8.84;63.19;102055.47;6281735;22;20426;-78
2021/03/20 08:21:20;;;;;;;1.60;1.50;;;;;;;8.89;63.18;102059.22;6305757;22;20029;-76
2021/03/20 08:24:19;;;;;;;2.00;1.90;;;;;;;8.99;63.20;102060.66;6307117;22;19999;-78
2021/03/20 08:27:03;;;;;;;2.33;2.22;;;;;;;8.99;62.24;102058.75;6281212;22;20007;-77
2021/03/20 08:29:58;;;;;;;2.08;1.40;;;;;;;9.05;63.43;102054.31;6307572;22;20048;-78
2021/03/20 08:32:32;;;;;;;2.33;2.22;;;;;;;9.12;62.96;102060.59;6282376;22;20011;-77
2021/03/20 08:35:34;;;;;;;1.95;1.85;;;;;;;9.11;62.53;102058.91;6308907;22;19995;-77
2021/03/20 08:38:18;;;;;;;2.83;2.65;;;;;;;9.24;62.79;102069.81;6282063;22;20007;-77
2021/03/20 08:40:49;;;;;;;2.50;2.30;;;;;;;9.29;62.79;102065.56;6284415;22;20056;-78
2021/03/20 08:43:48;;;;;;;2.28;2.17;;;;;;;9.48;62.24;102064.63;6285891;22;20007;-76
2021/03/20 08:46:50;;;;;;;;;;;;;;;;;;;;;
2021/03/20 08:49:22;;;;;;;3.50;3.22;;;;;;;9.77;61.61;102063.19;6311593;22;20093;-77
2021/03/20 08:52:13;;;;;;;3.00;2.90;;;;;;;10.00;61.78;102071.88;6283600;22;20006;-79
2021/03/20 08:55:16;;;;;;;4.03;3.83;;;;;;;10.04;62.20;102073.91;6279729;22;20033;-77
2021/03/20 08:58:13;;;;;;;4.35;3.85;;;;;;;10.29;61.77;102070.34;6309495;22;20057;-77
2021/03/20 09:01:03;;;;;;;6.45;3.63;;;;;;;10.46;61.22;102059.72;6302963;22;20070;-78
2021/03/20 09:03:42;;;;;;;3.42;3.22;;;;;;;10.72;60.85;102064.09;6308697;22;20015;-77
2021/03/20 09:06:30;;;;;;;3.70;3.40;;;;;;;11.05;60.32;102068.34;6291070;22;19995;-76
2021/03/20 09:09:01;;;;;;;4.30;4.00;;;;;;;11.10;60.06;102059.47;6292914;22;20003;-77
2021/03/20 09:11:39;;;;;;;4.85;3.47;;;;;;;11.38;60.07;102060.78;6288874;22;19999;-79
2021/03/20 09:14:23;;;;;;;2.28;2.17;;;;;;;11.55;59.63;102060.94;6319517;22;20449;-79
2021/03/20 09:16:54;;;;;;;4.75;4.43;;;;;;;11.61;58.70;102060.88;6292478;22;19987;-77
2021/03/20 09:19:31;;;;;;;4.55;4.18;;;;;;;11.66;58.49;102069.22;6316476;22;20326;-77
2021/03/20 09:22:10;;;;;;;4.90;4.50;;;;;;;11.75;58.50;102066.16;6312408;22;19999;-76
2021/03/20 09:24:57;;;;;;;5.20;4.90;;;;;;;11.81;58.62;102070.69;6286636;22;20355;-80
2021/03/20 09:28:00;;;;;;;5.05;4.85;;;;;;;12.00;58.31;102069.59;6284555;22;20029;-79
2021/03/20 09:30:37;;;;;;;5.00;4.53;;;;;;;12.11;58.36;102067.09;6285345;22;21026;-75
2021/03/20 09:33:28;;;;;;;2.80;2.65;;;;;;;12.35;59.06;102060.56;6305131;22;20003;-75
2021/03/20 09:36:00;;;;;;;5.70;5.32;;;;;;;12.75;57.76;102059.00;6302738;22;20082;-77
2021/03/20 09:38:45;;;;;;;4.95;4.65;;;;;;;13.17;57.42;102063.44;6297035;22;19999;-77
2021/03/20 09:41:13;;;;;;;6.82;6.32;;;;;;;13.39;56.26;102060.88;6274220;22;20031;-75
2021/03/20 09:44:08;;;;;;;4.07;3.88;;;;;;;13.89;56.40;102062.91;6306640;22;19999;-77
2021/03/20 09:46:39;;;;;;;5.40;5.03;;;;;;;14.13;56.05;102051.75;6304542;22;20029;-75
2021/03/20 09:49:08;;;;;;;9.40;6.70;;;;;;;14.32;54.86;102060.56;6294824;22;20010;-77
2021/03/20 09:51:54;;;;;;;6.30;5.80;;;;;;;14.58;54.97;102060.97;6277348;22;20005;-76
2021/03/20 09:54:42;;;;;;;6.10;5.55;;;;;;;14.88;54.71;102068.00;6307643;22;20062;-76
2021/03/20 09:59:49;;;;;;;4.53;4.22;;;;;;;15.42;53.97;102062.63;6302212;22;20011;-77
2021/03/20 10:02:21;;;;;;;4.63;4.43;;;;;;;15.86;53.86;102072.75;6308355;22;20068;-78
2021/03/20 10:05:03;;;;;;;6.70;6.13;;;;;;;16.17;52.69;102068.31;6283522;22;20011;-77
2021/03/20 10:07:53;;;;;;;7.97;7.28;;;;;;;16.36;50.65;102077.00;6281539;22;20011;-78
2021/03/20 10:10:18;;;;;;;7.57;6.93;;;;;;;16.18;48.61;102071.91;6294379;22;20406;-77
2021/03/20 10:12:49;;;;;;;7.95;7.25;;;;;;;15.81;48.79;102069.91;6322627;22;20083;-78
2021/03/20 10:15:32;;;;;;;6.75;6.15;;;;;;;15.64;49.32;102075.53;6305427;22;20003;-78
2021/03/20 10:18:11;;;;;;;7.88;6.93;;;;;;;15.56;49.34;102076.81;6302935;22;20055;-78
2021/03/20 10:20:45;;;;;;;7.88;6.97;;;;;;;15.50;50.18;102075.91;6299885;22;20318;-76
2021/03/20 10:23:29;;;;;;;7.50;6.90;;;;;;;15.44;49.94;102070.63;6307163;22;20015;-77
2021/03/20 10:25:56;;;;;;;6.10;5.50;;;;;;;15.34;49.68;102065.81;6309766;22;20220;-75
2021/03/20 10:28:29;;;;;;;10.35;7.53;;;;;;;15.30;49.70;102064.66;6307992;22;20015;-79
2021/03/20 10:31:04;;;;;;;6.63;6.05;;;;;;;15.27;49.71;102059.69;6281206;22;20007;-78
2021/03/20 10:33:36;;;;;;;10.63;6.43;;;;;;;15.22;49.94;102057.69;6309811;22;20011;-78
2021/03/20 10:36:14;;;;;;;5.03;4.70;;;;;;;15.42;50.55;102068.13;6310314;22;20003;-78
2021/03/20 10:38:43;;;;;;;5.85;5.38;;;;;;;15.58;50.20;102054.50;6281651;22;20341;-77
2021/03/20 10:41:22;;;;;;;5.32;4.93;;;;;;;15.74;49.76;102034.28;6311143;22;20050;-80
2021/03/20 10:43:53;;;;;;;6.78;6.15;;;;;;;15.95;48.13;102051.03;6306968;22;20003;-75
2021/03/20 10:46:30;;;;;;;6.00;5.60;;;;;;;15.90;48.31;102045.44;6308339;22;20101;-74
2021/03/20 10:49:18;;;;;;;6.35;5.95;;;;;;;15.94;48.75;102046.59;6280985;22;20025;-75
2021/03/20 10:51:47;;;;;;;4.72;4.40;;;;;;;15.94;48.63;102035.56;6305779;22;20022;-74
2021/03/20 10:54:22;;;;;;;3.08;2.92;;;;;;;16.07;48.85;102017.72;6307717;22;20325;-75
2021/03/20 10:56:53;;;;;;;;;;;;;;;16.45;47.95;102046.97;6306221;22;20003;-75
2021/03/20 10:59:31;;;;;;;4.88;4.57;;;;;;;16.29;48.27;102039.69;6279270;22;19910;-74
2021/03/20 11:01:57;;;;;;;5.55;4.13;;;;;;;16.13;48.45;102025.78;6289998;22;20616;-75
2021/03/20 11:04:38;;;;;;;4.28;4.07;;;;;;;16.19;48.29;102012.84;6297740;22;20028;-76
2021/03/20 11:07:24;;;;;;;5.50;4.97;;;;;;;16.28;47.95;102013.19;6294653;22;20007;-77
2021/03/20 11:10:10;;;;;;;5.22;4.38;;;;;;;16.39;48.38;102020.44;6296919;22;20379;-75
2021/03/20 11:12:39;;;;;;;3.30;3.20;;;;;;;16.40;48.29;102008.31;6272625;22;20003;-73
2021/03/20 11:15:05;;;;;;;8.40;6.43;;;;;;;16.57;48.48;102014.47;6297766;22;20007;-77
2021/03/20 11:17:34;;;;;;;5.28;4.97;;;;;;;16.70;48.62;101998.50;6276687;22;20089;-75
2021/03/20 11:20:20;;;;;;;6.75;6.20;;;;;;;16.92;48.03;101995.59;6308548;22;20022;-74
2021/03/20 11:22:46;;;;;;;;;;;;;;;17.16;46.69;102007.00;6306301;22;20418;-76
2021/03/20 11:25:33;;;;;;;;;;;;;;;17.05;46.30;102005.31;6280191;22;19917;-75
2021/03/20 11:28:30;;;;;;;11.45;9.80;;;;;;;16.78;46.76;102005.44;6306241;22;19934;-76
2021/03/20 11:30:59;;;;;;;13.65;9.25;;;;;;;16.49;46.93;101995.66;6274838;22;20014;-75
2021/03/20 11:33:29;;;;;;;10.63;9.57;;;;;;;16.57;47.20;101995.16;6298096;22;20011;-74
2021/03/20 11:35:59;;;;;;;7.70;7.30;;;;;;;16.72;47.24;101991.63;6296641;22;20007;-75
2021/03/20 11:38:26;;;;;;;7.15;6.55;;;;;;;17.00;47.55;101997.84;6301708;22;20102;-75
2021/03/20 11:40:54;;;;;;;5.55;5.15;;;;;;;17.24;47.39;101992.66;6298689;22;20010;-76
2021/03/20 11:43:25;;;;;;;10.02;7.82;;;;;;;17.48;45.80;101992.16;6275425;22;20003;-75
2021/03/20 11:45:53;;;;;;;9.63;8.68;;;;;;;17.47;44.97;101990.47;6273998;22;20007;-76
2021/03/20 11:49:19;;;;;;;10.13;8.85;;;;;;;17.69;44.54;101986.63;6304350;22;20010;-75
2021/03/20 11:51:47;;;;;;;9.20;7.93;;;;;;;17.60;44.42;101989.94;6286211;22;20011;-75
2021/03/20 11:54:38;;;;;;;9.65;8.82;;;;;;;17.52;44.16;101992.41;6301665;22;20483;-75
2021/03/20 11:57:13;;;;;;;7.10;6.45;;;;;;;17.51;45.13;101991.59;6303587;22;20030;-76
2021/03/20 11:59:46;;;;;;;6.80;6.25;;;;;;;17.88;44.90;101984.94;6307673;22;20027;-76
2021/03/20 12:02:27;;;;;;;8.60;6.30;;;;;;;18.30;44.32;101986.59;6303276;22;20087;-75
2021/03/20 12:05:11;;;;;;;10.05;9.13;;;;;;;18.15;42.99;101983.88;6278242;22;20015;-76
2021/03/20 12:07:37;;;;;;;6.93;6.30;;;;;;;17.83;43.69;101973.06;6299553;22;20017;-74
2021/03/20 12:10:23;;;;;;;6.07;5.78;;;;;;;17.90;44.36;101982.78;6306291;22;19991;-75
2021/03/20 12:12:58;;;;;;;4.55;4.25;;;;;;;18.13;44.58;101986.88;6301431;22;20304;-75
2021/03/20 12:15:45;;;;;;;;;;;;;;;;;;;;;
2021/03/20 12:18:19;;;;;;;4.60;4.20;;;;;;;18.08;43.78;101967.53;6302963;22;20059;-75
2021/03/20 12:20:44;;;;;;;5.97;5.50;;;;;;;17.87;43.37;101963.94;6274663;22;20000;-76
2021/03/20 12:23:23;;;;;;;6.95;6.47;;;;;;;17.46;43.67;101966.69;6303881;22;20065;-74